Time;durP1;ratioP1;P1;durP2;ratioP2;P2;SDS_P1;SDS_P2;PMS_P1;PMS_P2;Temp;Humidity;BMP_temperature;BMP_pressure;BME280_temperature;BME280_humidity;BME280_pressure;Samples;Min_cycle;Max_cycle;Signal;HPM_P1;HPM_P2
2023/12/05 00:00:07;;;;;;;6.80;1.00;;;;;;;8.58;73.68;99885.56;5069311;28;20396;-77
2023/12/05 00:02:33;;;;;;;12.60;1.83;;;;;;;8.54;73.50;99876.81;5069901;28;20028;-76
2023/12/05 00:04:58;;;;;;;12.10;1.27;;;;;;;8.53;73.56;99888.19;5073698;28;20043;-76
2023/12/05 00:07:25;;;;;;;9.53;1.07;;;;;;;8.52;73.25;99889.06;5073697;28;20335;-77
2023/12/05 00:09:51;;;;;;;6.07;1.17;;;;;;;8.50;73.37;99893.44;5074011;28;20032;-75
2023/12/05 00:12:16;;;;;;;7.60;1.08;;;;;;;8.51;73.30;99894.34;5073895;28;20443;-76
2023/12/05 00:14:41;;;;;;;6.97;0.97;;;;;;;8.50;73.41;99896.06;5073241;28;20389;-77
2023/12/05 00:17:07;;;;;;;9.70;1.20;;;;;;;8.51;72.93;99897.81;5073283;28;20047;-77
2023/12/05 00:19:32;;;;;;;14.23;1.30;;;;;;;8.52;72.55;99894.31;5073257;28;20016;-77
2023/12/05 00:21:58;;;;;;;7.47;1.30;;;;;;;8.54;72.57;99900.44;5071813;28;20254;-76
2023/12/05 00:24:23;;;;;;;10.83;1.17;;;;;;;8.55;72.31;99910.06;5073017;28;20052;-76
2023/12/05 00:26:49;;;;;;;9.53;1.10;;;;;;;8.53;72.25;99913.56;5073142;28;20168;-75
2023/12/05 00:29:15;;;;;;;9.13;0.90;;;;;;;8.52;72.06;99922.34;5072962;28;20107;-76
2023/12/05 00:31:41;;;;;;;11.05;1.92;;;;;;;8.51;72.36;99924.06;5073158;28;20035;-76
2023/12/05 00:34:06;;;;;;;9.03;1.10;;;;;;;8.51;72.09;99931.94;5073071;28;20566;-76
2023/12/05 00:36:31;;;;;;;10.23;1.87;;;;;;;8.51;72.09;99936.31;5072988;28;20104;-75
2023/12/05 00:38:57;;;;;;;10.80;1.53;;;;;;;8.49;71.98;99933.66;5073081;28;20021;-76
2023/12/05 00:41:24;;;;;;;8.68;0.85;;;;;;;8.45;71.88;99931.91;5072728;28;20260;-76
2023/12/05 00:43:51;;;;;;;9.25;1.20;;;;;;;8.44;71.88;99930.16;5072782;28;20447;-77
2023/12/05 00:46:16;;;;;;;9.60;1.03;;;;;;;8.41;71.96;99924.94;5072763;28;20059;-76
2023/12/05 00:48:41;;;;;;;12.60;1.23;;;;;;;8.37;72.09;99939.78;5072884;28;20055;-76
2023/12/05 00:51:07;;;;;;;10.33;1.00;;;;;;;8.34;72.07;99929.28;5072568;28;20275;-77
2023/12/05 00:53:32;;;;;;;11.60;1.17;;;;;;;8.28;71.97;99938.03;5072487;28;20079;-76
2023/12/05 00:55:58;;;;;;;10.77;1.30;;;;;;;8.26;72.03;99931.91;5072515;28;20028;-76
2023/12/05 00:58:23;;;;;;;10.40;1.40;;;;;;;8.23;72.17;99931.91;5070921;28;20592;-77
2023/12/05 01:00:48;;;;;;;11.53;1.10;;;;;;;8.19;72.19;99940.66;5072408;28;20263;-76
2023/12/05 01:03:14;;;;;;;9.37;1.20;;;;;;;8.14;72.12;99934.56;5072471;28;20029;-76
2023/12/05 01:05:40;;;;;;;8.00;1.20;;;;;;;8.11;72.52;99939.81;5072477;28;20025;-76
2023/12/05 01:08:05;;;;;;;10.77;1.53;;;;;;;8.08;72.74;99937.16;5072562;28;20055;-76
2023/12/05 01:10:30;;;;;;;12.30;1.93;;;;;;;8.05;72.83;99949.38;5071243;28;20020;-76
2023/12/05 01:12:56;;;;;;;14.77;1.90;;;;;;;8.06;73.18;99955.53;5072231;28;20055;-76
2023/12/05 01:15:21;;;;;;;12.37;2.03;;;;;;;8.05;73.33;99959.03;5072274;28;20028;-76
2023/12/05 01:17:46;;;;;;;15.17;1.53;;;;;;;8.08;73.45;99963.38;5071925;28;20028;-76
2023/12/05 01:20:12;;;;;;;8.07;1.25;;;;;;;8.05;73.62;99959.03;5072236;28;20057;-76
2023/12/05 01:22:38;;;;;;;12.80;1.67;;;;;;;8.04;73.88;99968.63;5072048;28;20040;-77
2023/12/05 01:25:05;;;;;;;14.55;2.38;;;;;;;8.00;74.14;99966.88;5071653;28;20044;-77
2023/12/05 01:27:31;;;;;;;14.13;1.90;;;;;;;7.97;74.46;99977.34;5072214;28;20115;-76
2023/12/05 01:29:56;;;;;;;14.03;2.03;;;;;;;7.92;74.35;99984.34;5072046;28;20112;-76
2023/12/05 01:32:21;;;;;;;10.77;1.43;;;;;;;7.87;74.76;99988.72;5072299;28;20267;-76
2023/12/05 01:34:47;;;;;;;13.90;1.40;;;;;;;7.84;74.93;99980.84;5071953;28;20384;-75
2023/12/05 01:37:13;;;;;;;11.20;2.03;;;;;;;7.80;75.17;99979.06;5071725;28;20024;-77
2023/12/05 01:39:38;;;;;;;11.67;1.40;;;;;;;7.76;75.42;99972.94;5071810;28;20165;-78
2023/12/05 01:42:04;;;;;;;10.40;1.10;;;;;;;7.73;74.88;99984.28;5071883;28;20283;-78
2023/12/05 01:44:29;;;;;;;9.47;1.20;;;;;;;7.72;75.68;99990.41;5072095;28;20423;-77
2023/12/05 01:46:55;;;;;;;13.10;1.75;;;;;;;7.69;75.41;99990.41;5071479;28;20023;-78
2023/12/05 01:49:21;;;;;;;14.97;2.20;;;;;;;7.70;75.24;99992.16;5071775;28;20028;-76
2023/12/05 01:51:47;;;;;;;13.40;1.70;;;;;;;7.71;75.12;99996.50;5071578;28;20029;-77
2023/12/05 01:54:12;;;;;;;16.00;1.77;;;;;;;7.70;75.27;99984.28;5071427;28;20021;-76
2023/12/05 01:56:38;;;;;;;9.30;1.30;;;;;;;7.67;75.38;99984.28;5071543;28;20063;-77
2023/12/05 01:59:03;;;;;;;8.18;1.33;;;;;;;7.65;75.46;99995.63;5071244;28;20459;-77
2023/12/05 02:01:29;;;;;;;10.87;1.20;;;;;;;7.63;75.31;99990.38;5071311;28;20020;-76
2023/12/05 02:03:57;;;;;;;9.80;1.50;;;;;;;7.61;75.49;99995.59;5071233;28;20050;-75
2023/12/05 02:06:22;;;;;;;12.35;1.20;;;;;;;7.61;75.26;100003.47;5071454;28;20035;-76
2023/12/05 02:08:52;;;;;;;14.80;1.57;;;;;;;7.60;75.98;100003.47;5071307;28;20020;-75
2023/12/05 02:11:17;;;;;;;7.50;1.10;;;;;;;7.57;75.60;100006.06;5071214;28;20060;-77
2023/12/05 02:13:45;;;;;;;8.10;1.07;;;;;;;7.56;75.55;100012.16;5071071;28;20063;-76
2023/12/05 02:16:29;;;;;;;9.88;1.30;;;;;;;7.54;75.74;100013.91;5070994;28;20024;-78
2023/12/05 02:19:03;;;;;;;8.47;0.87;;;;;;;7.52;75.49;100008.69;5069583;28;20119;-78
2023/12/05 02:21:33;;;;;;;8.38;0.77;;;;;;;7.49;75.34;100010.41;5070748;28;20161;-75
2023/12/05 02:24:04;;;;;;;9.77;1.30;;;;;;;7.47;75.15;100007.75;5070490;28;20072;-75
2023/12/05 02:26:50;;;;;;;10.88;1.10;;;;;;;7.45;75.24;100015.63;5070064;28;20562;-75
2023/12/05 02:29:15;;;;;;;13.70;1.65;;;;;;;7.44;75.62;100019.13;5062966;28;20040;-77
2023/12/05 02:31:41;;;;;;;12.57;1.10;;;;;;;7.42;75.63;100026.09;5070988;28;20039;-76
2023/12/05 02:34:06;;;;;;;7.23;0.93;;;;;;;7.40;75.80;100014.75;5070660;28;20024;-76
2023/12/05 02:36:49;;;;;;;8.27;1.00;;;;;;;7.39;75.63;100020.84;5070513;28;20108;-77
2023/12/05 02:39:25;;;;;;;9.57;1.03;;;;;;;7.37;75.41;100022.59;5070496;28;20270;-77
2023/12/05 02:41:58;;;;;;;8.55;0.75;;;;;;;7.35;75.16;100024.28;5070274;28;20399;-76
2023/12/05 02:44:26;;;;;;;8.90;1.25;;;;;;;7.33;75.56;100028.66;5070323;28;20029;-78
2023/12/05 02:46:53;;;;;;;9.98;1.00;;;;;;;7.30;75.63;100023.41;5069278;28;20051;-76
2023/12/05 02:49:18;;;;;;;13.00;1.58;;;;;;;7.29;75.20;100024.28;5070997;28;20029;-77
2023/12/05 02:51:45;;;;;;;8.53;1.40;;;;;;;7.27;75.30;100020.78;5070733;28;20023;-77
2023/12/05 02:54:10;;;;;;;7.47;0.82;;;;;;;7.27;75.39;100015.53;5070078;28;20013;-77
2023/12/05 02:56:36;;;;;;;14.07;1.07;;;;;;;7.27;75.27;100010.28;5070287;28;20115;-78
2023/12/05 02:59:02;;;;;;;10.90;1.02;;;;;;;7.25;75.59;100007.69;5070099;28;20027;-77
2023/12/05 03:01:27;;;;;;;9.60;0.80;;;;;;;7.24;75.22;99999.81;5070204;28;20059;-77
2023/12/05 03:03:53;;;;;;;17.10;1.50;;;;;;;7.21;75.28;99995.41;5070100;28;20024;-77
2023/12/05 03:06:18;;;;;;;13.70;1.23;;;;;;;7.20;75.61;100003.28;5070311;28;20029;-77
2023/12/05 03:08:44;;;;;;;9.77;1.17;;;;;;;7.18;75.61;100001.53;5070771;28;20020;-77
2023/12/05 03:11:09;;;;;;;10.80;1.23;;;;;;;7.18;75.60;100006.78;5070135;28;20070;-77
2023/12/05 03:13:38;;;;;;;10.47;1.20;;;;;;;7.16;75.68;100012.84;5069859;28;20056;-78
2023/12/05 03:16:04;;;;;;;9.00;1.05;;;;;;;7.14;75.03;100015.47;5069968;28;20582;-78
2023/12/05 03:18:30;;;;;;;9.73;1.27;;;;;;;7.14;75.43;100010.25;5069796;28;20258;-75
2023/12/05 03:20:55;;;;;;;12.20;1.80;;;;;;;7.15;75.33;100019.84;5070011;28;20027;-74
2023/12/05 03:23:21;;;;;;;7.87;1.30;;;;;;;7.12;75.53;100014.59;5069822;28;20016;-77
2023/12/05 03:25:46;;;;;;;12.82;1.30;;;;;;;7.12;75.53;100016.31;5069494;28;20035;-77
2023/12/05 03:28:11;;;;;;;13.47;1.20;;;;;;;7.12;75.50;100017.22;5069928;28;20115;-78
2023/12/05 03:30:37;;;;;;;11.93;1.30;;;;;;;7.12;75.61;100009.34;5069946;28;20271;-78
2023/12/05 03:33:02;;;;;;;10.37;1.17;;;;;;;7.11;75.40;100014.56;5069831;28;20060;-77
2023/12/05 03:35:28;;;;;;;7.93;1.50;;;;;;;7.10;74.94;100003.22;5069598;28;20028;-79
2023/12/05 03:37:53;;;;;;;15.52;1.75;;;;;;;7.08;75.14;100004.94;5069483;28;20078;-77
2023/12/05 03:40:18;;;;;;;11.27;1.67;;;;;;;7.09;75.44;100008.47;5069392;28;20032;-77
2023/12/05 03:42:44;;;;;;;10.73;1.13;;;;;;;7.06;74.91;100014.53;5069528;28;20052;-77
2023/12/05 03:45:09;;;;;;;10.20;1.43;;;;;;;7.04;74.97;100013.66;5069562;28;20035;-77
2023/12/05 03:47:35;;;;;;;11.35;1.30;;;;;;;7.01;75.11;100014.53;5069588;28;20021;-76
2023/12/05 03:50:00;;;;;;;9.50;0.90;;;;;;;6.98;75.12;100014.47;5069644;28;20419;-76
2023/12/05 03:52:25;;;;;;;12.90;1.10;;;;;;;6.97;75.08;100022.34;5069693;28;20039;-77
2023/12/05 03:54:51;;;;;;;10.23;1.20;;;;;;;6.94;74.98;100023.19;5068044;28;20384;-76
2023/12/05 03:57:16;;;;;;;13.77;1.20;;;;;;;6.91;75.65;100023.16;5069344;28;20030;-77
2023/12/05 03:59:41;;;;;;;17.70;1.50;;;;;;;6.88;75.59;100015.31;5069527;28;20031;-77
2023/12/05 04:02:07;;;;;;;11.65;1.00;;;;;;;6.88;75.30;100013.56;5069347;28;20434;-77
2023/12/05 04:04:32;;;;;;;8.07;0.80;;;;;;;6.88;75.82;100008.34;5069394;28;20063;-77
2023/12/05 04:06:57;;;;;;;12.27;1.30;;;;;;;6.86;75.26;100011.81;5069784;28;20142;-77
2023/12/05 04:09:23;;;;;;;7.13;0.93;;;;;;;6.83;75.65;100015.25;5069781;28;20021;-77
2023/12/05 04:11:48;;;;;;;11.20;1.10;;;;;;;6.81;75.42;100019.59;5069474;28;20028;-77
2023/12/05 04:14:14;;;;;;;9.95;1.15;;;;;;;6.78;75.81;100019.59;5069384;28;20050;-77
2023/12/05 04:16:40;;;;;;;13.27;1.53;;;;;;;6.77;75.53;100020.47;5069078;28;20060;-76
2023/12/05 04:19:05;;;;;;;11.82;1.30;;;;;;;6.75;74.99;100027.41;5069110;28;20271;-77
2023/12/05 04:21:31;;;;;;;8.87;1.10;;;;;;;6.72;75.55;100033.50;5069018;28;20282;-76
2023/12/05 04:23:56;;;;;;;10.53;1.17;;;;;;;6.74;75.50;100025.66;5068771;28;20546;-78
2023/12/05 04:26:22;;;;;;;5.80;1.03;;;;;;;6.75;75.64;100023.09;5069338;28;20025;-76
2023/12/05 04:28:47;;;;;;;10.40;1.20;;;;;;;6.78;75.83;100035.28;5069033;28;20071;-76
2023/12/05 04:31:13;;;;;;;12.70;0.80;;;;;;;6.81;75.30;100029.22;5069170;28;20299;-76
2023/12/05 04:33:39;;;;;;;7.55;0.80;;;;;;;6.82;75.26;100031.81;5069513;28;20029;-76
2023/12/05 04:36:05;;;;;;;7.80;1.00;;;;;;;6.86;75.58;100030.13;5068718;28;20032;-75
2023/12/05 04:38:33;;;;;;;10.70;1.30;;;;;;;6.89;74.97;100035.38;5068918;28;20640;-76
2023/12/05 04:40:58;;;;;;;9.02;0.80;;;;;;;6.92;74.93;100045.88;5068883;28;20033;-78
2023/12/05 04:43:23;;;;;;;8.60;1.00;;;;;;;6.93;74.93;100039.75;5068742;28;20027;-78
2023/12/05 04:45:49;;;;;;;10.53;1.30;;;;;;;6.95;75.39;100040.66;5069055;28;20499;-74
2023/12/05 04:48:14;;;;;;;10.43;1.48;;;;;;;6.95;75.13;100032.78;5069235;28;20036;-77
2023/12/05 04:50:39;;;;;;;11.97;2.03;;;;;;;6.95;75.00;100024.06;5072793;28;20039;-76
2023/12/05 04:53:05;;;;;;;9.47;1.20;;;;;;;6.95;74.97;100024.06;5073131;28;20028;-77
2023/12/05 04:55:30;;;;;;;16.43;2.13;;;;;;;6.95;74.80;100016.22;5072604;28;20032;-77
2023/12/05 04:57:56;;;;;;;12.47;1.10;;;;;;;6.94;75.02;100015.34;5072493;28;20074;-77
2023/12/05 05:00:21;;;;;;;9.75;1.42;;;;;;;6.91;74.80;100017.06;5072669;28;20028;-77
2023/12/05 05:02:46;;;;;;;10.10;1.30;;;;;;;6.89;74.78;100024.91;5072343;28;20273;-77
2023/12/05 05:05:12;;;;;;;6.60;0.80;;;;;;;6.86;74.70;100030.13;5072975;28;20496;-77
2023/12/05 05:07:37;;;;;;;8.10;1.03;;;;;;;6.82;74.99;100029.22;5072297;28;20029;-77
2023/12/05 05:10:03;;;;;;;11.48;1.73;;;;;;;6.81;75.35;100027.47;5072593;28;20111;-77
2023/12/05 05:12:29;;;;;;;10.30;1.47;;;;;;;6.79;74.79;100015.25;5072490;28;20029;-77
2023/12/05 05:14:54;;;;;;;6.70;0.95;;;;;;;6.78;74.89;100022.22;5072137;28;20480;-76
2023/12/05 05:17:20;;;;;;;8.77;1.50;;;;;;;6.76;74.86;100029.16;5072105;28;20025;-76
2023/12/05 05:19:46;;;;;;;10.98;1.38;;;;;;;6.72;75.15;100033.50;5072100;28;20545;-77
2023/12/05 05:22:11;;;;;;;10.40;1.60;;;;;;;6.70;75.15;100023.91;5072030;28;20131;-76
2023/12/05 05:24:37;;;;;;;9.27;1.10;;;;;;;6.69;75.72;100032.63;5071800;28;20045;-76
2023/12/05 05:27:03;;;;;;;6.35;1.17;;;;;;;6.67;74.94;100034.34;5072176;28;20067;-75
2023/12/05 05:29:28;;;;;;;15.53;1.47;;;;;;;6.64;75.88;100035.19;5070693;28;20032;-76
2023/12/05 05:31:54;;;;;;;7.50;0.98;;;;;;;6.64;75.73;100034.31;5071904;28;20092;-75
2023/12/05 05:34:19;;;;;;;7.27;1.17;;;;;;;6.60;75.58;100026.41;5071925;28;20548;-75
2023/12/05 05:36:45;;;;;;;7.97;1.00;;;;;;;6.59;75.20;100037.75;5071836;28;20037;-77
2023/12/05 05:39:10;;;;;;;5.82;0.90;;;;;;;6.58;75.75;100035.13;5071686;28;20028;-77
2023/12/05 05:41:36;;;;;;;9.93;2.10;;;;;;;6.58;75.58;100024.69;5071741;28;20035;-76
2023/12/05 05:44:01;;;;;;;10.50;1.10;;;;;;;6.55;75.00;100024.66;5071894;28;20171;-76
2023/12/05 05:46:26;;;;;;;9.90;1.67;;;;;;;6.54;75.59;100022.91;5071900;28;20029;-76
2023/12/05 05:48:52;;;;;;;10.27;1.73;;;;;;;6.52;75.66;100030.72;5071751;28;20059;-76
2023/12/05 05:51:17;;;;;;;12.17;1.70;;;;;;;6.50;75.81;100032.44;5071655;28;20033;-78
2023/12/05 05:53:43;;;;;;;11.87;1.70;;;;;;;6.50;75.56;100036.78;5071477;28;20109;-76
2023/12/05 05:56:09;;;;;;;8.30;1.47;;;;;;;6.46;75.66;100031.53;5071744;28;20028;-78
2023/12/05 05:58:34;;;;;;;11.07;1.00;;;;;;;6.46;75.40;100036.75;5071298;28;20041;-76
2023/12/05 06:00:59;;;;;;;11.27;1.40;;;;;;;6.45;75.88;100047.25;5070372;28;20155;-77
2023/12/05 06:03:28;;;;;;;7.97;0.90;;;;;;;6.44;75.22;100041.13;5071265;28;20048;-79
2023/12/05 06:05:53;;;;;;;6.87;1.23;;;;;;;6.41;75.67;100043.69;5071089;28;20263;-77
2023/12/05 06:08:19;;;;;;;11.43;1.50;;;;;;;6.39;75.31;100047.16;5071448;28;20051;-77
2023/12/05 06:10:45;;;;;;;5.43;0.60;;;;;;;6.39;75.73;100049.78;5071510;28;20108;-77
2023/12/05 06:13:10;;;;;;;8.00;0.83;;;;;;;6.38;75.57;100053.25;5071183;28;20411;-79
2023/12/05 06:15:35;;;;;;;10.73;1.13;;;;;;;6.36;75.62;100054.97;5071235;28;20047;-79
2023/12/05 06:18:01;;;;;;;10.87;1.40;;;;;;;6.35;75.35;100061.06;5070899;28;20074;-77
2023/12/05 06:20:26;;;;;;;12.93;1.20;;;;;;;6.32;75.87;100054.09;5070781;28;20433;-77
2023/12/05 06:22:53;;;;;;;13.73;1.13;;;;;;;6.29;75.64;100054.91;5070810;28;20336;-77
2023/12/05 06:25:19;;;;;;;5.75;1.00;;;;;;;6.29;75.90;100060.16;5052185;28;20044;-77
2023/12/05 06:27:46;;;;;;;7.17;1.17;;;;;;;6.27;75.85;100060.97;5070788;28;20503;-79
2023/12/05 06:30:11;;;;;;;7.95;1.27;;;;;;;6.24;75.96;100059.22;5070601;28;20484;-77
2023/12/05 06:32:37;;;;;;;9.53;1.57;;;;;;;6.22;75.99;100055.72;5070934;28;20036;-77
2023/12/05 06:35:02;;;;;;;8.35;1.63;;;;;;;6.18;75.92;100062.66;5070647;28;20028;-79
2023/12/05 06:37:29;;;;;;;6.37;1.00;;;;;;;6.14;75.41;100057.38;5070424;28;20102;-79
2023/12/05 06:39:56;;;;;;;8.55;1.02;;;;;;;6.14;75.88;100073.06;5069829;28;20024;-80
2023/12/05 06:42:22;;;;;;;7.77;1.30;;;;;;;6.12;75.55;100072.16;5069668;28;20119;-79
2023/12/05 06:44:51;;;;;;;7.97;1.02;;;;;;;6.11;76.18;100070.41;5069594;28;20115;-80
2023/12/05 06:47:16;;;;;;;6.97;1.13;;;;;;;6.09;75.43;100074.75;5069909;28;20032;-78
2023/12/05 06:49:43;;;;;;;7.77;1.00;;;;;;;6.06;75.84;100078.22;5069821;28;20024;-78
2023/12/05 06:52:11;;;;;;;5.88;0.93;;;;;;;6.05;75.31;100072.97;5069889;28;20111;-78
2023/12/05 06:54:36;;;;;;;8.48;1.10;;;;;;;6.02;76.07;100071.19;5058727;28;20052;-78
2023/12/05 06:57:02;;;;;;;7.07;0.87;;;;;;;6.04;76.02;100082.56;5070224;28;20092;-79
2023/12/05 06:59:27;;;;;;;11.90;1.37;;;;;;;6.02;75.83;100081.63;5069216;28;20506;-76
2023/12/05 07:01:53;;;;;;;7.10;1.10;;;;;;;5.99;75.92;100085.06;5069607;28;20028;-76
2023/12/05 07:04:18;;;;;;;11.30;1.13;;;;;;;6.00;76.27;100088.56;5069653;28;20328;-76
2023/12/05 07:06:44;;;;;;;6.50;0.70;;;;;;;5.98;75.56;100096.41;5069265;28;20012;-76
2023/12/05 07:09:09;;;;;;;11.70;1.40;;;;;;;5.95;75.55;100090.25;5068234;28;20044;-76
2023/12/05 07:11:35;;;;;;;6.97;0.90;;;;;;;5.95;75.46;100096.38;5068429;28;20314;-76
2023/12/05 07:14:00;;;;;;;6.57;1.33;;;;;;;5.97;75.74;100099.88;5069035;28;20055;-75
2023/12/05 07:16:25;;;;;;;9.30;1.20;;;;;;;5.97;75.35;100102.47;5068963;28;20036;-76
2023/12/05 07:18:51;;;;;;;7.57;1.20;;;;;;;5.97;75.25;100107.72;5068978;28;20055;-77
2023/12/05 07:21:16;;;;;;;8.23;1.03;;;;;;;5.98;75.47;100096.41;5068983;28;20580;-79
2023/12/05 07:23:41;;;;;;;8.25;0.90;;;;;;;6.00;75.15;100099.00;5069250;28;20033;-81
2023/12/05 07:26:07;;;;;;;6.23;0.77;;;;;;;6.00;75.29;100099.91;5069641;28;20166;-76
2023/12/05 07:28:33;;;;;;;6.90;1.07;;;;;;;6.00;75.45;100094.66;5069313;28;20037;-78
2023/12/05 07:30:58;;;;;;;7.47;1.02;;;;;;;5.98;75.61;100105.97;5069153;28;20037;-77
2023/12/05 07:33:24;;;;;;;7.00;0.83;;;;;;;5.99;74.74;100119.06;5068276;28;20029;-76
2023/12/05 07:35:49;;;;;;;7.10;0.90;;;;;;;6.01;75.85;100106.03;5068781;28;20115;-79
2023/12/05 07:38:15;;;;;;;9.23;1.07;;;;;;;6.02;74.95;100113.00;5067156;28;20542;-80
2023/12/05 07:40:40;;;;;;;8.27;1.13;;;;;;;6.05;75.33;100112.19;5065864;28;20056;-80
2023/12/05 07:43:05;;;;;;;8.20;1.30;;;;;;;6.07;75.30;100110.44;5067956;28;20119;-78
2023/12/05 07:45:31;;;;;;;7.33;0.93;;;;;;;6.10;75.29;100119.22;5069388;28;20043;-78
2023/12/05 07:47:56;;;;;;;8.43;0.80;;;;;;;6.13;75.04;100120.97;5052817;28;20119;-78
2023/12/05 07:50:22;;;;;;;5.78;0.93;;;;;;;6.15;75.10;100124.50;5049624;28;20025;-78
2023/12/05 07:52:51;;;;;;;7.03;0.90;;;;;;;6.13;75.15;100121.88;5049701;28;20043;-78
2023/12/05 07:55:20;;;;;;;9.18;1.15;;;;;;;6.13;74.88;100126.19;5063278;28;20054;-78
2023/12/05 07:57:46;;;;;;;6.25;0.98;;;;;;;6.13;75.11;100120.97;5069452;28;20511;-77
2023/12/05 08:00:19;;;;;;;8.63;1.17;;;;;;;6.15;75.29;100127.13;5069505;28;20066;-79
2023/12/05 08:02:45;;;;;;;6.57;0.80;;;;;;;6.13;75.37;100121.88;5069306;28;20543;-78
2023/12/05 08:05:10;;;;;;;6.95;0.90;;;;;;;6.15;75.41;100128.00;5069834;28;20497;-78
2023/12/05 08:07:37;;;;;;;7.97;0.90;;;;;;;6.20;75.18;100128.06;5069531;28;20116;-77
2023/12/05 08:10:02;;;;;;;5.53;1.00;;;;;;;6.32;74.34;100138.63;5069340;28;20264;-78
2023/12/05 08:12:28;;;;;;;5.60;1.20;;;;;;;6.41;75.05;100137.00;5069663;28;20357;-78
2023/12/05 08:14:53;;;;;;;5.80;1.20;;;;;;;6.60;74.28;100132.84;5069323;28;20024;-77
2023/12/05 08:17:18;;;;;;;7.43;1.23;;;;;;;6.79;74.54;100139.13;5069147;28;20258;-77
2023/12/05 08:19:44;;;;;;;16.53;3.70;;;;;;;7.00;73.68;100132.31;5069265;28;20021;-76
2023/12/05 08:22:09;;;;;;;12.48;2.08;;;;;;;7.18;73.17;100137.72;5069099;28;20105;-76
2023/12/05 08:24:35;;;;;;;7.13;1.60;;;;;;;7.35;73.12;100142.19;5071673;28;20083;-77
2023/12/05 08:27:00;;;;;;;7.83;1.47;;;;;;;7.47;72.55;100142.28;5073331;28;20107;-77
2023/12/05 08:29:25;;;;;;;6.37;1.60;;;;;;;7.64;72.57;100135.38;5073528;28;20456;-77
2023/12/05 08:31:51;;;;;;;9.80;1.05;;;;;;;7.76;72.11;100145.94;5072975;28;20025;-77
2023/12/05 08:34:16;;;;;;;9.53;1.10;;;;;;;7.88;71.92;100139.91;5072990;28;20054;-77
2023/12/05 08:36:45;;;;;;;5.83;1.07;;;;;;;8.00;71.67;100139.94;5073257;28;20096;-77
2023/12/05 08:39:11;;;;;;;10.55;1.25;;;;;;;8.14;71.43;100136.50;5073699;28;20029;-77
2023/12/05 08:41:37;;;;;;;14.88;2.97;;;;;;;8.25;71.27;100142.66;5072935;28;20108;-77
2023/12/05 08:44:02;;;;;;;6.50;1.30;;;;;;;8.36;71.04;100144.47;5072833;28;20449;-77
2023/12/05 08:46:28;;;;;;;7.43;0.93;;;;;;;8.45;70.95;100133.97;5073052;28;20468;-77
2023/12/05 08:48:53;;;;;;;5.73;1.00;;;;;;;8.56;71.06;100139.28;5072870;28;20074;-78
2023/12/05 08:51:18;;;;;;;5.27;0.97;;;;;;;8.66;70.78;100145.44;5072729;28;20281;-77
2023/12/05 08:53:44;;;;;;;12.40;1.03;;;;;;;8.76;70.52;100141.94;5072902;28;20815;-78
2023/12/05 08:56:10;;;;;;;8.30;0.90;;;;;;;8.84;70.16;100134.97;5072609;28;20020;-78
2023/12/05 08:58:37;;;;;;;8.15;0.98;;;;;;;8.97;69.70;100137.59;5072393;28;20493;-77
2023/12/05 09:01:03;;;;;;;6.27;0.70;;;;;;;8.99;70.03;100146.34;5072515;28;20086;-78
2023/12/05 09:03:29;;;;;;;7.20;0.88;;;;;;;9.06;69.35;100145.47;5072669;28;20025;-77
2023/12/05 09:05:54;;;;;;;6.15;0.70;;;;;;;9.11;68.74;100141.09;5072681;28;20029;-77
2023/12/05 09:08:20;;;;;;;7.90;0.80;;;;;;;9.13;68.80;100136.72;5072556;28;20032;-77
2023/12/05 09:10:46;;;;;;;6.53;0.80;;;;;;;9.19;69.08;100141.09;5072662;28;20032;-78
2023/12/05 09:13:11;;;;;;;6.53;0.88;;;;;;;9.25;69.01;100127.06;5072392;28;20032;-77
2023/12/05 09:15:37;;;;;;;7.40;0.90;;;;;;;9.33;68.09;100143.72;5072010;28;20024;-77
2023/12/05 09:18:02;;;;;;;6.17;1.13;;;;;;;9.43;68.05;100131.44;5071989;28;20487;-77
2023/12/05 09:20:28;;;;;;;5.50;0.70;;;;;;;9.47;67.81;100134.03;5072094;28;20032;-77
2023/12/05 09:22:54;;;;;;;7.53;0.80;;;;;;;9.57;67.83;100139.31;5072319;28;20051;-77
2023/12/05 09:25:19;;;;;;;7.77;0.60;;;;;;;9.56;67.86;100134.91;5071799;28;20086;-78
2023/12/05 09:27:44;;;;;;;8.55;0.70;;;;;;;9.54;67.22;100139.31;5072264;28;20112;-77
2023/12/05 09:30:12;;;;;;;10.70;1.10;;;;;;;9.46;67.51;100150.69;5071924;28;20400;-77
2023/12/05 09:32:37;;;;;;;7.40;0.85;;;;;;;9.40;67.16;100142.81;5072078;28;20090;-76
2023/12/05 09:35:03;;;;;;;8.40;0.70;;;;;;;9.37;67.56;100155.97;5071738;28;20420;-76
2023/12/05 09:37:28;;;;;;;5.27;0.70;;;;;;;9.36;67.44;100148.97;5072080;28;20067;-78
2023/12/05 09:39:53;;;;;;;6.83;0.70;;;;;;;9.32;67.55;100158.59;5072058;28;20111;-77
2023/12/05 09:42:21;;;;;;;7.90;0.68;;;;;;;9.38;66.79;100149.84;5071874;28;20032;-77
2023/12/05 09:44:47;;;;;;;6.43;0.63;;;;;;;9.48;66.88;100146.31;5071581;28;20024;-77
2023/12/05 09:47:19;;;;;;;5.70;0.70;;;;;;;9.60;66.02;100148.03;5071760;28;20246;-78
2023/12/05 09:49:45;;;;;;;6.85;0.80;;;;;;;9.71;66.33;100145.38;5071743;28;20032;-77
2023/12/05 09:52:11;;;;;;;7.63;0.70;;;;;;;9.85;65.87;100145.34;5071450;28;20100;-78
2023/12/05 09:54:37;;;;;;;7.85;0.90;;;;;;;9.95;65.08;100138.31;5071359;28;20111;-77
2023/12/05 09:57:04;;;;;;;7.20;1.00;;;;;;;9.93;65.47;100145.31;5071859;28;20472;-77
2023/12/05 09:59:29;;;;;;;5.30;0.60;;;;;;;9.88;65.40;100147.97;5071175;28;20616;-77
2023/12/05 10:02:01;;;;;;;6.80;0.83;;;;;;;9.82;65.46;100147.13;5071444;28;20115;-77
2023/12/05 10:04:28;;;;;;;6.80;0.70;;;;;;;9.74;65.57;100142.75;5071408;28;20090;-76
2023/12/05 10:06:56;;;;;;;7.60;0.80;;;;;;;9.68;65.64;100132.25;5071504;28;20028;-76
2023/12/05 10:09:23;;;;;;;7.85;1.38;;;;;;;9.67;66.26;100127.88;5071366;28;20478;-76
2023/12/05 10:11:50;;;;;;;12.50;1.10;;;;;;;9.66;65.99;100128.75;5071158;28;20032;-76
2023/12/05 10:14:15;;;;;;;5.57;0.80;;;;;;;9.62;66.10;100146.28;5070618;28;20032;-76
2023/12/05 10:16:41;;;;;;;5.65;0.90;;;;;;;9.65;66.63;100142.78;5071136;28;20034;-76
2023/12/05 10:19:09;;;;;;;8.60;0.80;;;;;;;9.75;66.58;100136.59;5071171;28;20052;-76
2023/12/05 10:21:36;;;;;;;9.15;0.60;;;;;;;9.98;66.02;100133.03;5070689;28;20421;-76
2023/12/05 10:24:01;;;;;;;6.25;0.63;;;;;;;10.12;65.56;100129.47;5070944;28;20105;-77
2023/12/05 10:26:28;;;;;;;8.80;0.70;;;;;;;10.26;64.74;100127.66;5070999;28;20372;-76
2023/12/05 10:28:56;;;;;;;6.90;0.60;;;;;;;10.35;63.96;100121.44;5070644;28;20062;-76
2023/12/05 10:31:22;;;;;;;9.30;1.20;;;;;;;10.42;64.09;100127.59;5070907;28;20045;-75
2023/12/05 10:33:51;;;;;;;10.23;1.23;;;;;;;10.53;63.69;100120.53;5070881;28;20562;-76
2023/12/05 10:36:17;;;;;;;6.28;1.05;;;;;;;10.70;64.18;100124.78;5070754;28;20033;-76
2023/12/05 10:38:46;;;;;;;5.63;0.80;;;;;;;10.79;64.42;100122.09;5070911;28;20021;-77
2023/12/05 10:41:20;;;;;;;6.85;0.65;;;;;;;10.96;63.74;100113.19;5071137;28;20036;-78
2023/12/05 10:43:49;;;;;;;6.68;1.08;;;;;;;11.12;63.02;100113.94;5070577;28;20139;-76
2023/12/05 10:46:16;;;;;;;5.07;0.70;;;;;;;11.15;62.12;100111.28;5070254;28;20213;-76
2023/12/05 10:48:43;;;;;;;9.85;1.30;;;;;;;11.09;62.31;100114.84;5070604;28;20063;-77
2023/12/05 10:51:09;;;;;;;7.40;1.53;;;;;;;11.03;63.03;100125.44;5070843;28;20287;-77
2023/12/05 10:53:35;;;;;;;5.28;0.80;;;;;;;11.00;63.20;100114.94;5070138;28;20356;-75
2023/12/05 10:56:18;;;;;;;8.07;1.02;;;;;;;10.89;62.84;100110.59;5070407;28;20029;-76
2023/12/05 10:58:43;;;;;;;6.87;0.90;;;;;;;10.83;63.50;100108.03;5070434;28;20044;-77
2023/12/05 11:01:13;;;;;;;8.55;0.82;;;;;;;10.80;63.54;100107.16;5070421;28;20112;-76
2023/12/05 11:03:40;;;;;;;8.15;0.88;;;;;;;10.76;63.21;100111.59;5070244;28;20038;-77
2023/12/05 11:06:07;;;;;;;7.00;0.60;;;;;;;10.73;62.83;100106.31;5070140;28;20082;-76
2023/12/05 11:08:33;;;;;;;6.13;0.50;;;;;;;10.69;63.47;100109.88;5070280;28;20396;-76
2023/12/05 11:11:00;;;;;;;7.40;0.70;;;;;;;10.73;63.29;100107.22;5069773;28;20066;-76
2023/12/05 11:13:26;;;;;;;5.88;0.50;;;;;;;10.75;62.38;100115.13;5069952;28;20032;-78
2023/12/05 11:15:55;;;;;;;9.20;0.80;;;;;;;10.79;62.70;100106.31;5069928;28;20033;-75
2023/12/05 11:18:32;;;;;;;8.30;1.13;;;;;;;10.91;62.29;100102.69;5069683;28;20025;-77
2023/12/05 11:21:14;;;;;;;9.75;1.10;;;;;;;11.08;62.43;100092.00;5069906;28;20260;-77
2023/12/05 11:24:07;;;;;;;8.43;1.25;;;;;;;11.30;61.83;100091.81;5069403;28;20035;-77
2023/12/05 11:27:00;;;;;;;7.03;0.80;;;;;;;11.51;60.72;100085.44;5070438;28;20111;-75